map of ORK home
ORK - Airport
Location
City:  Cork, County Cork, Munster, Ireland
Name:Cork International Airport
ICAO:EICK
IATA:ORK

Details
Type:Airport (Aerodrome, Airfield)
Use:International (customs port of entry)
Latitude:5150'29"N (51.841389)
Longitude:829'28"W (-8.491110)
Elevation:502 ft (153 m)
Variation:3.69W (WMM2015 magnetic declination)
0.16 annual change
Runways:2
Longest:6998 × 148 ft (2133 × 45 m), paved

Time
Time Zone:UTC+0 (DST+1)
Local Time:

Weather
METAR:EICK 240830Z 25004KT 9999 SCT006 BKN009 14/13 Q1014 NOSIG
TAF:EICK 231100Z 2312/2412 24014KT 9999 FEW008 BKN012
TEMPO 2312/2315 4000 -RADZ BKN008
TEMPO 2315/2402 SCT010 BKN017
BECMG 2322/2324 27009KT PROB40
TEMPO 2402/2407 6000 -RA BKN009
BECMG 2407/2410 BKN030

Related Locations
Nearby:
Farthest:SZS: 12057 mi / 19404 km
Ryan's Creek, Stewart Island, STL, NZ

Find:

   beyond  
but within

Other Information
Maps:
NOTAMs:
Links:
Sources:

  
flag of Ireland
flag of Munster
  

Sectional Chart

Flight Planning
at skyvector.com

Satellite Image

Google Maps Satellite view

 

Copyright © 2004-2017 Karl L. Swartz. All rights reserved.
The Great Circle Mapper name and logo are trademarks of the Great Circle Mapper.
All other trademarks mentioned herein belong to their respective owners.
Please see credits for attibutions and further copyright information.

  Follow gcmap on Facebook Follow gcmap on Twitter Follow gcmap on Google+ GCmap on LinkedIn

hCard Microformat

Geo Microformat